Terminal Aerodrome Forecast
Issued by NWS Atlanta, GA

Home | Current Version | Previous Version | Text Only | Print | Product List | Glossary On
Versions: 1 2 3 4 5 6 7 8 9 10 11 12 13 14 15 16 17 18 19 20 21 22 23 24 25 26 27 28 29
000
FTUS42 KFFC 221138
TAFCSG
TAF
KCSG 221138Z 2212/2312 07005KT P6SM SCT035
     FM221400 07006KT P6SM BKN015
     FM221800 09008KT P6SM BKN035
     FM230000 08005KT P6SM SCT050
     FM230800 09005KT P6SM SCT007 BKN020
     FM231000 08004KT P6SM BKN007=

USA.gov is the U.S. government's official web portal to all federal, state and local government web resources and services.